createdAt,value
2022-12-19T00:01:57.785Z,25.63
2022-12-19T00:06:59.959Z,25.70
2022-12-19T00:12:01.691Z,32.05
2022-12-19T00:17:03.346Z,32.10
2022-12-19T00:22:10.894Z,32.70
2022-12-19T00:27:12.902Z,34.58
2022-12-19T00:32:14.586Z,33.67
2022-12-19T00:37:18.250Z,21.97
2022-12-19T00:42:19.965Z,25.57
2022-12-19T00:47:23.652Z,23.95
2022-12-19T00:52:25.353Z,25.47
2022-12-19T00:57:27.338Z,26.53
2022-12-19T01:02:29.135Z,23.15
2022-12-19T01:07:30.849Z,21.95
2022-12-19T01:12:47.730Z,27.07
2022-12-19T01:17:49.841Z,31.30
2022-12-19T01:22:53.294Z,33.63
2022-12-19T01:27:55.797Z,34.87
2022-12-19T01:32:58.686Z,30.58
2022-12-19T01:38:08.478Z,28.65
2022-12-19T01:43:14.843Z,29.30
2022-12-19T01:48:22.482Z,29.80
2022-12-19T01:53:28.943Z,28.37
2022-12-19T01:58:31.017Z,30.03
2022-12-19T02:03:35.550Z,32.97
2022-12-19T02:08:37.635Z,35.60
2022-12-19T02:13:40.585Z,32.37
2022-12-19T02:19:30.405Z,29.13
2022-12-19T02:24:50.829Z,32.70
2022-12-19T02:30:10.513Z,32.97
2022-12-19T02:35:40.416Z,28.97
2022-12-19T02:40:51.882Z,29.20
2022-12-19T02:46:00.933Z,31.83
2022-12-19T02:51:04.693Z,30.73
2022-12-19T02:56:22.827Z,31.57
2022-12-19T03:01:31.038Z,30.33
2022-12-19T03:06:48.456Z,40.78
2022-12-19T03:12:00.528Z,37.90
2022-12-19T03:17:06.107Z,32.33
2022-12-19T03:22:08.522Z,29.37
2022-12-19T03:27:22.788Z,34.20
2022-12-19T03:32:25.240Z,30.73
2022-12-19T03:37:31.991Z,29.67
2022-12-19T03:42:54.243Z,39.70
2022-12-19T03:48:00.915Z,33.67
2022-12-19T03:53:23.979Z,34.97
2022-12-19T03:58:33.976Z,34.33
2022-12-19T04:03:36.183Z,32.33
2022-12-19T04:08:38.532Z,30.27
2022-12-19T04:13:47.575Z,29.27
2022-12-19T04:18:56.450Z,32.87
2022-12-19T04:24:04.610Z,33.78
2022-12-19T04:29:08.073Z,25.23
2022-12-19T04:34:09.844Z,26.60
2022-12-19T04:39:11.639Z,29.67
2022-12-19T04:44:13.312Z,26.47
2022-12-19T04:49:14.957Z,27.53
2022-12-19T04:54:16.842Z,21.40
2022-12-19T04:59:18.609Z,22.17
2022-12-19T05:04:20.419Z,23.38
2022-12-19T05:09:22.177Z,21.60
2022-12-19T05:14:24.282Z,21.57
2022-12-19T05:19:25.993Z,18.42
2022-12-19T05:24:27.662Z,24.73
2022-12-19T05:29:29.367Z,21.13
2022-12-19T05:34:31.753Z,18.37
2022-12-19T05:39:33.492Z,22.27
2022-12-19T05:44:35.292Z,26.63
2022-12-19T05:49:37.003Z,21.30
2022-12-19T05:54:38.657Z,26.33
2022-12-19T05:59:40.309Z,19.58
2022-12-19T06:04:42.009Z,20.27
2022-12-19T06:09:43.697Z,20.27
2022-12-19T06:14:45.345Z,22.63
2022-12-19T06:19:47.003Z,21.50
2022-12-19T06:24:48.685Z,23.63
2022-12-19T06:29:50.416Z,18.35
2022-12-19T06:35:07.422Z,22.17
2022-12-19T06:40:29.749Z,23.00
2022-12-19T06:45:31.673Z,22.80
2022-12-19T06:50:36.381Z,22.57
2022-12-19T06:55:40.071Z,26.65
2022-12-19T07:00:41.863Z,28.57
2022-12-19T07:05:44.098Z,29.73
2022-12-19T07:10:45.877Z,24.10
2022-12-19T07:15:48.252Z,26.73
2022-12-19T07:20:49.984Z,30.13
2022-12-19T07:25:51.764Z,30.85
2022-12-19T07:30:53.528Z,26.80
2022-12-19T07:35:55.425Z,31.77
2022-12-19T07:41:01.237Z,28.17
2022-12-19T07:46:02.962Z,29.02
2022-12-19T07:51:05.450Z,30.17
2022-12-19T07:56:07.685Z,29.33
2022-12-19T08:01:10.126Z,28.13
2022-12-19T08:06:11.995Z,28.85
2022-12-19T08:11:19.136Z,30.38
2022-12-19T08:16:21.666Z,36.72
2022-12-19T08:21:25.011Z,23.15
2022-12-19T08:26:27.759Z,28.87
2022-12-19T08:31:31.800Z,32.97
2022-12-19T08:36:33.944Z,32.30
2022-12-19T08:41:35.745Z,33.60
2022-12-19T08:46:37.563Z,23.83
2022-12-19T08:51:39.326Z,30.20
2022-12-19T08:56:46.837Z,28.40
2022-12-19T09:01:49.041Z,25.58
2022-12-19T09:06:50.950Z,32.55
2022-12-19T09:11:52.695Z,27.65
2022-12-19T09:16:54.440Z,26.77
2022-12-19T09:21:59.547Z,29.30
2022-12-19T09:27:01.229Z,26.58
2022-12-19T09:32:03.103Z,31.67
2022-12-19T09:37:10.438Z,38.15
2022-12-19T09:42:35.121Z,30.77
2022-12-19T09:47:47.080Z,32.08
2022-12-19T09:52:58.304Z,34.33
2022-12-19T09:58:06.178Z,36.95
2022-12-19T10:03:38.803Z,33.75
2022-12-19T10:09:16.650Z,27.75
2022-12-19T10:14:22.694Z,27.63
2022-12-19T10:19:35.058Z,26.92
2022-12-19T10:25:10.459Z,23.38
2022-12-19T10:30:18.983Z,26.50
2022-12-19T10:35:21.167Z,23.33
2022-12-19T10:40:32.117Z,22.75
2022-12-19T10:45:41.018Z,31.90
2022-12-19T10:50:43.754Z,22.65
2022-12-19T10:55:51.802Z,26.02
2022-12-19T11:01:11.901Z,32.78
2022-12-19T11:06:35.385Z,27.60
2022-12-19T11:13:30.998Z,30.88
2022-12-19T11:23:49.428Z,31.40
2022-12-19T11:29:34.562Z,26.80
2022-12-19T11:29:37.373Z,30.05
2022-12-19T11:33:18.408Z,30.17
2022-12-19T11:38:27.877Z,28.02
2022-12-19T11:43:44.584Z,29.75
2022-12-19T11:48:54.025Z,31.83
2022-12-19T11:54:12.303Z,31.45
2022-12-19T11:59:37.846Z,29.63
2022-12-19T12:04:54.618Z,34.78
2022-12-19T12:13:45.659Z,29.33
2022-12-19T12:26:23.051Z,30.90
2022-12-19T12:31:05.106Z,32.83
2022-12-19T12:31:58.266Z,31.33
2022-12-19T12:35:46.912Z,29.85
2022-12-19T12:39:20.742Z,30.50
2022-12-19T12:44:33.175Z,29.25
2022-12-19T12:49:54.432Z,34.13
2022-12-19T12:54:57.835Z,31.48
2022-12-19T13:00:35.961Z,35.22
2022-12-19T13:05:45.836Z,29.05
2022-12-19T13:10:59.285Z,32.45
2022-12-19T13:16:39.429Z,26.83
2022-12-19T13:22:04.114Z,32.03
2022-12-19T13:27:32.359Z,29.08
2022-12-19T13:32:53.964Z,29.33
2022-12-19T13:39:56.400Z,36.47
2022-12-19T13:43:46.424Z,33.75
2022-12-19T13:48:52.537Z,33.92
2022-12-19T13:53:59.557Z,36.78
2022-12-19T13:59:04.341Z,36.67
2022-12-19T14:04:08.019Z,38.72
2022-12-19T14:11:27.765Z,32.33
2022-12-19T14:15:13.152Z,42.40
2022-12-19T14:22:07.202Z,44.97
2022-12-19T14:28:19.379Z,37.83
2022-12-19T14:31:15.257Z,50.25
2022-12-19T14:36:39.128Z,51.60
2022-12-19T14:42:04.336Z,48.85
2022-12-19T14:52:25.144Z,49.03
2022-12-19T14:54:37.231Z,49.53
2022-12-19T14:58:55.865Z,39.22
2022-12-19T15:03:32.139Z,40.78
2022-12-19T15:09:17.743Z,37.47
2022-12-19T15:14:53.929Z,43.22
2022-12-19T15:19:20.344Z,43.17
2022-12-19T15:24:22.104Z,38.85
2022-12-19T15:29:23.909Z,42.17
2022-12-19T15:34:41.940Z,36.72
2022-12-19T15:39:50.333Z,39.03
2022-12-19T15:44:54.047Z,34.47
2022-12-19T15:49:55.744Z,34.90
2022-12-19T15:54:57.505Z,37.78
2022-12-19T16:00:02.725Z,35.88
2022-12-19T16:05:06.737Z,39.47
2022-12-19T16:10:11.952Z,39.67
2022-12-19T16:15:19.931Z,32.45
2022-12-19T16:20:25.334Z,30.77
2022-12-19T16:25:34.141Z,32.33
2022-12-19T16:30:35.854Z,37.85
2022-12-19T16:40:59.263Z,30.75
2022-12-19T16:46:01.997Z,31.98
2022-12-19T16:51:04.030Z,32.72
2022-12-19T16:56:05.861Z,39.95
2022-12-19T17:01:10.596Z,32.08
2022-12-19T17:06:17.878Z,32.35
2022-12-19T17:11:24.940Z,34.30
2022-12-19T17:16:26.726Z,21.85
2022-12-19T17:21:28.494Z,28.92
2022-12-19T17:26:30.340Z,21.98
2022-12-19T17:31:38.079Z,25.70
2022-12-19T17:36:39.992Z,29.30
2022-12-19T17:41:41.686Z,27.17
2022-12-19T17:46:44.372Z,27.38
2022-12-19T17:51:50.466Z,34.10
2022-12-19T17:56:52.605Z,31.05
2022-12-19T18:01:54.524Z,29.63
2022-12-19T18:06:56.380Z,25.33
2022-12-19T18:11:58.206Z,28.05
2022-12-19T18:17:00.373Z,28.85
2022-12-19T18:22:02.276Z,34.10
2022-12-19T18:27:03.987Z,33.63
2022-12-19T18:32:05.761Z,29.38
2022-12-19T18:37:13.374Z,29.23
2022-12-19T18:42:22.021Z,32.47
2022-12-19T18:47:25.507Z,33.55
2022-12-19T18:52:27.219Z,31.35
2022-12-19T18:57:28.908Z,31.52
2022-12-19T19:02:30.924Z,32.67
2022-12-19T19:07:32.843Z,34.42
2022-12-19T19:12:34.522Z,34.67
2022-12-19T19:17:36.474Z,36.83
2022-12-19T19:22:38.263Z,38.35
2022-12-19T19:27:40.702Z,33.55
2022-12-19T19:32:50.570Z,36.83
2022-12-19T19:37:54.777Z,37.13
2022-12-19T19:42:56.491Z,29.55
2022-12-19T19:48:03.072Z,29.77
2022-12-19T19:53:04.835Z,32.40
2022-12-19T19:58:06.937Z,28.75
2022-12-19T20:03:10.030Z,27.17
2022-12-19T20:08:13.927Z,27.88
2022-12-19T20:13:15.603Z,37.58
2022-12-19T20:18:18.081Z,41.75
2022-12-19T20:23:19.781Z,39.67
2022-12-19T20:28:21.455Z,26.83
2022-12-19T20:33:23.605Z,31.10
2022-12-19T20:38:25.428Z,30.33
2022-12-19T20:43:27.245Z,33.75
2022-12-19T20:48:28.941Z,33.60
2022-12-19T20:53:31.854Z,35.88
2022-12-19T20:58:36.383Z,30.98
2022-12-19T21:03:39.524Z,31.13
2022-12-19T21:08:42.101Z,33.33
2022-12-19T21:13:44.173Z,28.90
2022-12-19T21:18:47.516Z,24.55
2022-12-19T21:23:50.185Z,28.48
2022-12-19T21:28:53.216Z,30.00
2022-12-19T21:34:00.337Z,28.73
2022-12-19T21:39:02.580Z,40.60
2022-12-19T21:44:04.587Z,38.30
2022-12-19T21:49:06.647Z,43.42
2022-12-19T21:54:09.628Z,36.03
2022-12-19T21:59:14.474Z,39.78
2022-12-19T22:04:22.100Z,49.72
2022-12-19T22:09:23.934Z,44.80
2022-12-19T22:14:26.024Z,43.63
2022-12-19T22:19:27.711Z,47.65
2022-12-19T22:24:29.604Z,49.88
2022-12-19T22:29:36.431Z,49.77
2022-12-19T22:34:38.351Z,51.22
2022-12-19T22:39:40.047Z,48.80
2022-12-19T22:44:41.709Z,50.20
2022-12-19T22:49:43.383Z,48.38
2022-12-19T22:54:45.087Z,53.17
2022-12-19T22:59:46.754Z,50.58
2022-12-19T23:04:48.445Z,48.83
2022-12-19T23:09:50.166Z,53.22
2022-12-19T23:14:51.860Z,62.72
2022-12-19T23:19:53.563Z,62.58
2022-12-19T23:24:55.265Z,55.80
2022-12-19T23:29:56.978Z,57.90
2022-12-19T23:34:58.667Z,63.00
2022-12-19T23:40:00.408Z,61.20
2022-12-19T23:45:02.150Z,59.75
2022-12-19T23:50:04.453Z,70.37
2022-12-19T23:55:06.788Z,64.43
